createdAt,value
2023-05-15T00:00:25.010Z,11.18
2023-05-15T00:01:25.010Z,11.25
2023-05-15T00:02:25.073Z,11.19
2023-05-15T00:03:25.023Z,11.18
2023-05-15T00:04:25.021Z,11.12
2023-05-15T00:05:25.172Z,11.18
2023-05-15T00:06:24.942Z,11.17
2023-05-15T00:07:24.922Z,11.15
2023-05-15T00:08:24.909Z,11.10
2023-05-15T00:09:24.886Z,11.05
2023-05-15T00:10:24.894Z,11.08
2023-05-15T00:11:24.875Z,11.08
2023-05-15T00:12:24.851Z,11.07
2023-05-15T00:13:24.835Z,11.05
2023-05-15T00:14:24.867Z,11.04
2023-05-15T00:15:25.239Z,11.05
2023-05-15T00:16:24.848Z,11.02
2023-05-15T00:17:24.786Z,11.07
2023-05-15T00:18:24.784Z,11.00
2023-05-15T00:19:24.769Z,10.93
2023-05-15T00:20:24.766Z,10.92
2023-05-15T00:21:24.730Z,10.90
2023-05-15T00:22:24.730Z,10.82
2023-05-15T00:23:24.706Z,10.78
2023-05-15T00:24:24.700Z,10.78
2023-05-15T00:25:24.924Z,10.75
2023-05-15T00:26:24.690Z,10.76
2023-05-15T00:27:24.657Z,10.78
2023-05-15T00:28:24.644Z,10.78
2023-05-15T00:29:24.626Z,10.79
2023-05-15T00:30:24.635Z,10.76
2023-05-15T00:31:24.686Z,10.75
2023-05-15T00:32:24.677Z,10.74
2023-05-15T00:33:24.584Z,10.67
2023-05-15T00:34:24.586Z,10.64
2023-05-15T00:35:24.809Z,10.60
2023-05-15T00:36:24.542Z,10.53
2023-05-15T00:37:24.528Z,10.48
2023-05-15T00:38:24.519Z,10.37
2023-05-15T00:39:24.520Z,10.30
2023-05-15T00:40:24.500Z,10.31
2023-05-15T00:41:24.476Z,10.31
2023-05-15T00:42:24.473Z,10.31
2023-05-15T00:43:24.451Z,10.26
2023-05-15T00:44:24.482Z,10.25
2023-05-15T00:45:24.647Z,10.26
2023-05-15T00:46:24.456Z,10.25
2023-05-15T00:47:24.453Z,10.25
2023-05-15T00:48:24.410Z,10.28
2023-05-15T00:49:24.387Z,10.31
2023-05-15T00:50:24.363Z,10.26
2023-05-15T00:51:24.346Z,10.30
2023-05-15T00:52:24.340Z,10.33
2023-05-15T00:53:24.340Z,10.28
2023-05-15T00:54:24.310Z,10.35
2023-05-15T00:55:24.621Z,10.37
2023-05-15T00:56:24.281Z,10.37
2023-05-15T00:57:24.295Z,10.42
2023-05-15T00:58:24.268Z,10.40
2023-05-15T00:59:24.241Z,10.42
2023-05-15T01:00:24.238Z,10.49
2023-05-15T01:01:24.293Z,10.46
2023-05-15T01:02:24.353Z,10.44
2023-05-15T01:03:24.368Z,10.40
2023-05-15T01:04:24.175Z,10.42
2023-05-15T01:05:24.302Z,10.41
2023-05-15T01:06:24.151Z,10.42
2023-05-15T01:07:24.156Z,10.41
2023-05-15T01:08:24.123Z,10.44
2023-05-15T01:09:24.119Z,10.44
2023-05-15T01:10:24.107Z,10.51
2023-05-15T01:11:24.098Z,10.53
2023-05-15T01:12:24.092Z,10.53
2023-05-15T01:13:24.054Z,10.53
2023-05-15T01:14:24.040Z,10.53
2023-05-15T01:15:24.207Z,10.54
2023-05-15T01:16:24.028Z,10.48
2023-05-15T01:17:24.002Z,10.44
2023-05-15T01:18:24.098Z,10.44
2023-05-15T01:19:24.159Z,10.35
2023-05-15T01:20:23.963Z,10.30
2023-05-15T01:21:23.960Z,10.33
2023-05-15T01:22:23.940Z,10.33
2023-05-15T01:23:23.932Z,10.31
2023-05-15T01:24:23.916Z,10.30
2023-05-15T01:25:24.225Z,10.25
2023-05-15T01:26:23.896Z,10.28
2023-05-15T01:27:23.880Z,10.31
2023-05-15T01:28:23.859Z,10.30
2023-05-15T01:29:23.840Z,10.26
2023-05-15T01:30:23.840Z,10.26
2023-05-15T01:31:23.827Z,10.25
2023-05-15T01:32:24.027Z,10.25
2023-05-15T01:33:23.793Z,10.23
2023-05-15T01:34:23.782Z,10.25
2023-05-15T01:35:24.234Z,10.30
2023-05-15T01:36:23.754Z,10.31
2023-05-15T01:37:23.733Z,10.28
2023-05-15T01:38:23.729Z,10.26
2023-05-15T01:39:23.712Z,10.34
2023-05-15T01:40:23.721Z,10.33
2023-05-15T01:41:23.689Z,10.34
2023-05-15T01:42:23.668Z,10.33
2023-05-15T01:43:23.650Z,10.33
2023-05-15T01:44:23.655Z,10.37
2023-05-15T01:45:23.752Z,10.37
2023-05-15T01:46:23.641Z,10.37
2023-05-15T01:47:23.620Z,10.34
2023-05-15T01:48:23.598Z,10.30
2023-05-15T01:49:23.588Z,10.35
2023-05-15T01:50:23.560Z,10.34
2023-05-15T01:51:23.582Z,10.30
2023-05-15T01:52:23.538Z,10.26
2023-05-15T01:53:23.556Z,10.25
2023-05-15T01:54:23.562Z,10.20
2023-05-15T01:55:23.748Z,10.25
2023-05-15T01:56:23.479Z,10.28
2023-05-15T01:57:23.476Z,10.22
2023-05-15T01:58:23.484Z,10.19
2023-05-15T01:59:23.453Z,10.15
2023-05-15T02:00:23.448Z,10.09
2023-05-15T02:01:23.439Z,10.16
2023-05-15T02:02:23.460Z,10.16
2023-05-15T02:03:23.471Z,10.19
2023-05-15T02:04:23.395Z,10.15
2023-05-15T02:05:23.493Z,10.16
2023-05-15T02:06:23.346Z,10.15
2023-05-15T02:07:23.365Z,10.13
2023-05-15T02:08:23.343Z,10.12
2023-05-15T02:09:23.305Z,10.13
2023-05-15T02:10:23.304Z,10.15
2023-05-15T02:11:23.279Z,10.10
2023-05-15T02:12:23.286Z,10.10
2023-05-15T02:13:23.278Z,10.07
2023-05-15T02:14:23.257Z,10.07
2023-05-15T02:15:23.758Z,10.04
2023-05-15T02:16:23.303Z,9.98
2023-05-15T02:17:23.308Z,9.87
2023-05-15T02:18:23.187Z,9.84
2023-05-15T02:19:23.183Z,9.80
2023-05-15T02:20:23.166Z,9.79
2023-05-15T02:21:23.147Z,9.82
2023-05-15T02:22:23.150Z,9.79
2023-05-15T02:23:23.141Z,9.80
2023-05-15T02:24:23.112Z,9.79
2023-05-15T02:25:23.322Z,9.80
2023-05-15T02:26:23.094Z,9.83
2023-05-15T02:27:23.080Z,9.82
2023-05-15T02:28:23.058Z,9.80
2023-05-15T02:29:23.042Z,9.83
2023-05-15T02:30:23.032Z,9.82
2023-05-15T02:31:24.480Z,9.82
2023-05-15T02:32:23.029Z,9.77
2023-05-15T02:33:22.986Z,9.74
2023-05-15T02:34:22.983Z,9.64
2023-05-15T02:35:23.136Z,9.58
2023-05-15T02:36:22.968Z,9.58
2023-05-15T02:37:22.935Z,9.61
2023-05-15T02:38:22.924Z,9.62
2023-05-15T02:39:22.937Z,9.56
2023-05-15T02:40:22.900Z,9.41
2023-05-15T02:41:22.916Z,9.39
2023-05-15T02:42:22.895Z,9.34
2023-05-15T02:43:22.861Z,9.37
2023-05-15T02:44:22.846Z,9.39
2023-05-15T02:45:23.154Z,9.40
2023-05-15T02:46:22.997Z,9.40
2023-05-15T02:47:22.804Z,9.43
2023-05-15T02:48:22.794Z,9.39
2023-05-15T02:49:22.775Z,9.37
2023-05-15T02:50:22.788Z,9.40
2023-05-15T02:51:22.747Z,9.40
2023-05-15T02:52:22.733Z,9.41
2023-05-15T02:53:22.720Z,9.39
2023-05-15T02:54:22.717Z,9.40
2023-05-15T02:55:22.768Z,9.41
2023-05-15T02:56:22.682Z,9.47
2023-05-15T02:57:22.680Z,9.43
2023-05-15T02:58:22.671Z,9.40
2023-05-15T02:59:22.642Z,9.44
2023-05-15T03:00:22.653Z,9.43
2023-05-15T03:01:22.639Z,9.41
2023-05-15T03:02:22.637Z,9.36
2023-05-15T03:03:22.591Z,9.29
2023-05-15T03:04:22.734Z,9.23
2023-05-15T03:05:22.854Z,9.19
2023-05-15T03:06:22.553Z,9.14
2023-05-15T03:07:22.549Z,9.11
2023-05-15T03:08:22.520Z,9.13
2023-05-15T03:09:22.525Z,9.16
2023-05-15T03:10:22.498Z,9.14
2023-05-15T03:11:22.504Z,9.08
2023-05-15T03:12:22.476Z,9.06
2023-05-15T03:13:22.481Z,9.02
2023-05-15T03:14:22.458Z,9.06
2023-05-15T03:15:22.565Z,9.06
2023-05-15T03:16:22.440Z,8.94
2023-05-15T03:17:22.404Z,8.94
2023-05-15T03:18:22.404Z,8.94
2023-05-15T03:19:22.380Z,8.89
2023-05-15T03:20:22.366Z,8.89
2023-05-15T03:21:22.352Z,8.92
2023-05-15T03:22:22.365Z,8.95
2023-05-15T03:23:22.343Z,8.94
2023-05-15T03:24:22.317Z,8.97
2023-05-15T03:25:22.314Z,9.02
2023-05-15T03:26:22.314Z,8.99
2023-05-15T03:27:22.318Z,9.02
2023-05-15T03:28:22.278Z,8.94
2023-05-15T03:29:22.246Z,8.88
2023-05-15T03:30:22.237Z,8.87
2023-05-15T03:31:22.279Z,8.84
2023-05-15T03:32:22.305Z,8.82
2023-05-15T03:33:22.210Z,8.89
2023-05-15T03:34:22.182Z,8.89
2023-05-15T03:35:22.222Z,8.91
2023-05-15T03:36:22.161Z,8.91
2023-05-15T03:37:22.196Z,8.94
2023-05-15T03:38:22.138Z,8.91
2023-05-15T03:39:22.118Z,8.91
2023-05-15T03:40:22.123Z,8.87
2023-05-15T03:41:22.119Z,8.85
2023-05-15T03:42:22.092Z,8.79
2023-05-15T03:43:22.082Z,8.69
2023-05-15T03:44:22.052Z,8.70
2023-05-15T03:45:22.137Z,8.67
2023-05-15T03:46:22.101Z,8.60
2023-05-15T03:47:22.035Z,8.58
2023-05-15T03:48:22.021Z,8.55
2023-05-15T03:49:22.005Z,8.56
2023-05-15T03:50:21.976Z,8.56
2023-05-15T03:51:21.978Z,8.55
2023-05-15T03:52:21.944Z,8.58
2023-05-15T03:53:21.932Z,8.56
2023-05-15T03:54:21.921Z,8.66
2023-05-15T03:55:21.917Z,8.64
2023-05-15T03:56:21.908Z,8.64
2023-05-15T03:57:21.886Z,8.63
2023-05-15T03:58:21.867Z,8.67
2023-05-15T03:59:21.876Z,8.67
2023-05-15T04:00:21.870Z,8.71
2023-05-15T04:01:21.849Z,8.66
2023-05-15T04:02:21.919Z,8.66
2023-05-15T04:03:21.966Z,8.70
2023-05-15T04:04:21.791Z,8.76
2023-05-15T04:05:22.021Z,8.76
2023-05-15T04:06:21.762Z,8.76
2023-05-15T04:07:21.752Z,8.82
2023-05-15T04:08:21.740Z,8.85
2023-05-15T04:09:21.724Z,8.87
2023-05-15T04:10:21.738Z,8.91
2023-05-15T04:11:21.706Z,8.99
2023-05-15T04:12:21.683Z,9.03
2023-05-15T04:13:21.673Z,9.00
2023-05-15T04:14:21.679Z,9.00
2023-05-15T04:15:21.845Z,9.03
2023-05-15T04:16:21.718Z,9.08
2023-05-15T04:17:21.649Z,9.10
2023-05-15T04:18:21.603Z,9.14
2023-05-15T04:19:21.649Z,9.19
2023-05-15T04:20:21.584Z,9.21
2023-05-15T04:21:21.567Z,9.14
2023-05-15T04:22:21.555Z,9.16
2023-05-15T04:23:21.544Z,9.25
2023-05-15T04:24:21.547Z,9.36
2023-05-15T04:25:21.538Z,9.46
2023-05-15T04:26:21.514Z,9.44
2023-05-15T04:27:21.495Z,9.40
2023-05-15T04:28:21.485Z,9.43
2023-05-15T04:29:21.480Z,9.55
2023-05-15T04:30:21.449Z,9.59
2023-05-15T04:31:21.506Z,9.68
2023-05-15T04:32:21.434Z,9.73
2023-05-15T04:33:21.456Z,9.82
2023-05-15T04:34:21.398Z,9.84
2023-05-15T04:35:21.384Z,9.87
2023-05-15T04:36:21.371Z,9.94
2023-05-15T04:37:21.365Z,9.98
2023-05-15T04:38:21.355Z,10.07
2023-05-15T04:39:21.327Z,10.13
2023-05-15T04:40:21.319Z,10.12
2023-05-15T04:41:21.305Z,10.10
2023-05-15T04:42:21.306Z,10.02
2023-05-15T04:43:21.299Z,9.99
2023-05-15T04:44:21.292Z,9.95
2023-05-15T04:45:21.250Z,9.84
2023-05-15T04:46:21.279Z,9.82
2023-05-15T04:47:21.320Z,9.82
2023-05-15T04:48:21.214Z,9.84
2023-05-15T04:49:21.196Z,9.94
2023-05-15T04:50:21.182Z,9.98
2023-05-15T04:51:21.177Z,10.04
2023-05-15T04:52:21.166Z,10.05
2023-05-15T04:53:21.144Z,10.12
2023-05-15T04:54:21.131Z,10.16
2023-05-15T04:55:21.124Z,10.09
2023-05-15T04:56:21.115Z,10.01
2023-05-15T04:57:21.104Z,10.02
2023-05-15T04:58:21.078Z,10.13
2023-05-15T04:59:21.063Z,10.17
2023-05-15T05:00:21.049Z,10.26
2023-05-15T05:01:21.089Z,10.33
2023-05-15T05:02:21.087Z,10.38
2023-05-15T05:03:21.057Z,10.35
2023-05-15T05:04:21.007Z,10.42
2023-05-15T05:05:20.996Z,10.42
2023-05-15T05:06:20.995Z,10.49
2023-05-15T05:07:20.962Z,10.63
2023-05-15T05:08:20.944Z,10.67
2023-05-15T05:09:20.934Z,10.69
2023-05-15T05:10:20.923Z,10.74
2023-05-15T05:11:20.926Z,10.75
2023-05-15T05:12:20.890Z,10.72
2023-05-15T05:13:20.882Z,10.81
2023-05-15T05:14:20.868Z,10.90
2023-05-15T05:15:20.872Z,10.97
2023-05-15T05:16:20.891Z,10.99
2023-05-15T05:17:20.829Z,10.94
2023-05-15T05:18:20.813Z,11.02
2023-05-15T05:19:20.829Z,11.12
2023-05-15T05:20:20.803Z,11.14
2023-05-15T05:21:20.775Z,11.23
2023-05-15T05:22:20.767Z,11.23
2023-05-15T05:23:20.757Z,10.92
2023-05-15T05:24:20.770Z,10.84
2023-05-15T05:25:20.753Z,10.96
2023-05-15T05:26:20.709Z,11.10
2023-05-15T05:27:20.708Z,11.26
2023-05-15T05:28:20.680Z,11.33
2023-05-15T05:29:20.700Z,11.32
2023-05-15T05:30:20.655Z,11.29
2023-05-15T05:31:20.659Z,11.23
2023-05-15T05:32:20.686Z,11.27
2023-05-15T05:33:20.623Z,11.29
2023-05-15T05:34:20.796Z,11.35
2023-05-15T05:35:20.997Z,11.45
2023-05-15T05:36:20.583Z,11.23
2023-05-15T05:37:20.586Z,11.14
2023-05-15T05:38:20.554Z,11.12
2023-05-15T05:39:20.558Z,11.14
2023-05-15T05:40:20.544Z,11.12
2023-05-15T05:41:20.517Z,11.22
2023-05-15T05:42:20.515Z,11.32
2023-05-15T05:43:20.533Z,11.37
2023-05-15T05:44:20.513Z,11.36
2023-05-15T05:45:20.467Z,11.35
2023-05-15T05:46:20.448Z,11.35
2023-05-15T05:47:20.557Z,11.44
2023-05-15T05:48:20.436Z,11.40
2023-05-15T05:49:20.422Z,11.44
2023-05-15T05:50:20.399Z,11.59
2023-05-15T05:51:20.475Z,11.70
2023-05-15T05:52:20.372Z,11.90
2023-05-15T05:53:20.377Z,12.02
2023-05-15T05:54:20.342Z,12.02
2023-05-15T05:55:20.334Z,12.07
2023-05-15T05:56:20.318Z,12.22
2023-05-15T05:57:20.365Z,12.29
2023-05-15T05:58:25.600Z,12.43
2023-05-15T05:59:20.283Z,12.47
2023-05-15T06:00:20.297Z,12.55
2023-05-15T06:01:20.255Z,12.31
2023-05-15T06:02:20.279Z,12.27
2023-05-15T06:03:20.354Z,12.42
2023-05-15T06:04:20.277Z,12.54
2023-05-15T06:05:20.202Z,12.64
2023-05-15T06:06:20.210Z,12.75
2023-05-15T06:07:20.257Z,12.87
2023-05-15T06:08:20.162Z,12.93
2023-05-15T06:09:20.146Z,12.83
2023-05-15T06:10:20.140Z,12.65
2023-05-15T06:11:20.132Z,12.83
2023-05-15T06:12:21.619Z,12.87
2023-05-15T06:13:20.119Z,12.86
2023-05-15T06:14:21.268Z,12.70
2023-05-15T06:15:20.060Z,12.91
2023-05-15T06:16:20.208Z,13.16
2023-05-15T06:17:20.033Z,13.27
2023-05-15T06:18:20.020Z,13.37
2023-05-15T06:19:20.086Z,13.35
2023-05-15T06:20:19.998Z,13.44
2023-05-15T06:21:20.010Z,13.62
2023-05-15T06:22:19.967Z,13.67
2023-05-15T06:23:20.310Z,13.67
2023-05-15T06:24:19.959Z,13.78
2023-05-15T06:25:19.941Z,13.93
2023-05-15T06:26:19.935Z,14.00
2023-05-15T06:27:19.902Z,14.12
2023-05-15T06:28:19.884Z,14.17
2023-05-15T06:29:19.873Z,14.23
2023-05-15T06:30:19.869Z,14.28
2023-05-15T06:31:19.951Z,14.28
2023-05-15T06:32:19.840Z,14.15
2023-05-15T06:33:19.823Z,14.23
2023-05-15T06:34:19.807Z,14.23
2023-05-15T06:35:19.893Z,14.05
2023-05-15T06:36:19.780Z,14.10
2023-05-15T06:37:19.767Z,14.03
2023-05-15T06:38:19.759Z,13.87
2023-05-15T06:39:19.877Z,13.39
2023-05-15T06:40:19.743Z,13.23
2023-05-15T06:41:19.720Z,13.19
2023-05-15T06:42:19.702Z,13.18
2023-05-15T06:43:19.694Z,13.38
2023-05-15T06:44:19.695Z,13.68
2023-05-15T06:45:19.719Z,13.87
2023-05-15T06:46:19.712Z,14.04
2023-05-15T06:47:19.690Z,14.22
2023-05-15T06:48:19.711Z,14.54
2023-05-15T06:49:19.637Z,14.82
2023-05-15T06:50:19.597Z,15.02
2023-05-15T06:51:19.592Z,15.36
2023-05-15T06:52:19.567Z,15.98
2023-05-15T06:53:19.578Z,16.60
2023-05-15T06:54:19.558Z,17.42
2023-05-15T06:55:19.830Z,18.22
2023-05-15T06:56:19.519Z,18.75
2023-05-15T06:57:19.504Z,19.74
2023-05-15T06:58:19.494Z,20.75
2023-05-15T06:59:19.501Z,21.40
2023-05-15T07:00:19.475Z,22.04
2023-05-15T07:01:19.462Z,22.50
2023-05-15T07:02:19.451Z,22.65
2023-05-15T07:03:19.443Z,22.62
2023-05-15T07:04:19.461Z,22.53
2023-05-15T07:05:19.423Z,22.20
2023-05-15T07:06:19.384Z,21.98
2023-05-15T07:07:19.418Z,21.99
2023-05-15T07:08:19.377Z,21.96
2023-05-15T07:09:19.387Z,22.02
2023-05-15T07:10:19.327Z,22.00
2023-05-15T07:11:19.458Z,21.89
2023-05-15T07:12:19.458Z,22.07
2023-05-15T07:13:19.460Z,22.18
2023-05-15T07:14:19.276Z,22.25
2023-05-15T07:15:19.261Z,22.44
2023-05-15T07:16:19.247Z,22.20
2023-05-15T07:17:19.306Z,22.14
2023-05-15T07:18:19.282Z,21.88
2023-05-15T07:19:19.214Z,22.17
2023-05-15T07:20:19.199Z,22.20
2023-05-15T07:21:19.185Z,22.13
2023-05-15T07:22:19.189Z,22.18
2023-05-15T07:23:19.156Z,22.33
2023-05-15T07:24:19.146Z,22.68
2023-05-15T07:25:19.135Z,22.91
2023-05-15T07:26:28.556Z,22.87
2023-05-15T07:27:19.333Z,22.93
2023-05-15T07:28:19.092Z,23.12
2023-05-15T07:29:19.074Z,23.10
2023-05-15T07:30:19.064Z,23.18
2023-05-15T07:31:19.111Z,23.25
2023-05-15T07:32:19.051Z,23.24
2023-05-15T07:33:19.023Z,22.87
2023-05-15T07:34:19.016Z,22.87
2023-05-15T07:35:19.022Z,23.06
2023-05-15T07:36:19.009Z,22.94
2023-05-15T07:37:18.968Z,23.12
2023-05-15T07:38:19.013Z,23.06
2023-05-15T07:39:18.988Z,22.90
2023-05-15T07:40:18.953Z,23.36
2023-05-15T07:41:18.942Z,23.54
2023-05-15T07:42:18.918Z,23.09
2023-05-15T07:43:18.916Z,23.55
2023-05-15T07:44:18.885Z,23.50
2023-05-15T07:45:18.936Z,23.25
2023-05-15T07:46:18.921Z,23.10
2023-05-15T07:47:18.832Z,23.00
2023-05-15T07:48:18.845Z,22.68
2023-05-15T07:49:18.829Z,23.06
2023-05-15T07:50:18.813Z,23.62
2023-05-15T07:51:18.839Z,24.20
2023-05-15T07:52:18.767Z,24.24
2023-05-15T07:53:18.754Z,24.47
2023-05-15T07:54:18.759Z,24.60
2023-05-15T07:55:18.728Z,24.13
2023-05-15T07:56:18.719Z,23.41
2023-05-15T07:57:18.721Z,22.90
2023-05-15T07:58:18.693Z,22.72
2023-05-15T07:59:19.011Z,22.81
2023-05-15T08:00:18.679Z,22.04
2023-05-15T08:01:18.651Z,21.51
2023-05-15T08:02:18.830Z,22.23
2023-05-15T08:03:18.889Z,22.78
2023-05-15T08:04:18.677Z,22.91
2023-05-15T08:05:18.600Z,22.48
2023-05-15T08:06:18.603Z,21.91
2023-05-15T08:07:18.576Z,20.66
2023-05-15T08:08:18.574Z,20.32
2023-05-15T08:09:18.558Z,19.91
2023-05-15T08:10:18.535Z,20.09
2023-05-15T08:11:18.517Z,20.29
2023-05-15T08:12:18.508Z,21.29
2023-05-15T08:13:18.522Z,21.75
2023-05-15T08:14:18.528Z,22.07
2023-05-15T08:15:18.499Z,22.45
2023-05-15T08:16:18.517Z,22.53
2023-05-15T08:17:18.443Z,22.10
2023-05-15T08:18:18.450Z,22.33
2023-05-15T08:19:18.497Z,22.63
2023-05-15T08:20:18.404Z,22.70
2023-05-15T08:21:18.386Z,23.23
2023-05-15T08:22:18.384Z,23.58
2023-05-15T08:23:18.393Z,23.91
2023-05-15T08:24:18.353Z,22.91
2023-05-15T08:25:18.355Z,22.26
2023-05-15T08:26:18.330Z,21.54
2023-05-15T08:27:18.351Z,21.17
2023-05-15T08:28:18.337Z,21.43
2023-05-15T08:29:18.283Z,21.30
2023-05-15T08:30:18.299Z,21.45
2023-05-15T08:31:18.344Z,22.14
2023-05-15T08:32:18.262Z,22.63
2023-05-15T08:33:18.233Z,23.05
2023-05-15T08:34:18.240Z,23.92
2023-05-15T08:35:18.209Z,23.91
2023-05-15T08:36:18.302Z,23.41
2023-05-15T08:37:18.220Z,23.50
2023-05-15T08:38:18.181Z,24.02
2023-05-15T08:39:18.175Z,23.59
2023-05-15T08:40:21.314Z,23.91
2023-05-15T08:41:23.510Z,23.77
2023-05-15T08:42:18.152Z,23.78
2023-05-15T08:43:18.106Z,23.77
2023-05-15T08:44:18.123Z,23.95
2023-05-15T08:45:18.079Z,24.58
2023-05-15T08:46:18.106Z,24.73
2023-05-15T08:47:18.077Z,25.23
2023-05-15T08:48:18.130Z,25.62
2023-05-15T08:49:18.074Z,25.68
2023-05-15T08:50:18.033Z,25.14
2023-05-15T08:51:18.022Z,25.08
2023-05-15T08:52:17.989Z,24.66
2023-05-15T08:53:17.972Z,24.01
2023-05-15T08:54:17.959Z,24.13
2023-05-15T08:55:17.991Z,23.48
2023-05-15T08:56:17.934Z,23.91
2023-05-15T08:57:17.922Z,24.06
2023-05-15T08:58:17.913Z,24.47
2023-05-15T08:59:17.902Z,24.76
2023-05-15T09:00:17.902Z,24.06
2023-05-15T09:01:17.889Z,23.92
2023-05-15T09:02:17.861Z,23.20
2023-05-15T09:03:17.984Z,23.28
2023-05-15T09:04:17.849Z,23.88
2023-05-15T09:05:17.841Z,23.84
2023-05-15T09:06:17.808Z,24.11
2023-05-15T09:07:17.795Z,24.76
2023-05-15T09:08:17.805Z,25.33
2023-05-15T09:09:17.787Z,25.93
2023-05-15T09:10:17.767Z,26.43
2023-05-15T09:11:17.774Z,26.99
2023-05-15T09:12:17.728Z,27.03
2023-05-15T09:13:17.719Z,26.28
2023-05-15T09:14:18.089Z,25.58
2023-05-15T09:15:17.756Z,25.72
2023-05-15T09:16:17.756Z,25.81
2023-05-15T09:17:17.669Z,26.19
2023-05-15T09:18:17.717Z,26.28
2023-05-15T09:19:17.818Z,25.87
2023-05-15T09:20:17.633Z,24.66
2023-05-15T09:21:17.622Z,24.50
2023-05-15T09:22:17.667Z,24.42
2023-05-15T09:23:17.610Z,24.39
2023-05-15T09:24:17.584Z,25.04
2023-05-15T09:25:17.564Z,25.65
2023-05-15T09:26:17.558Z,26.28
2023-05-15T09:27:17.539Z,26.83
2023-05-15T09:28:17.598Z,26.84
2023-05-15T09:29:18.658Z,26.36
2023-05-15T09:30:17.664Z,26.03
2023-05-15T09:31:17.511Z,26.06
2023-05-15T09:32:17.598Z,25.68
2023-05-15T09:33:17.482Z,24.70
2023-05-15T09:34:17.455Z,25.40
2023-05-15T09:35:17.464Z,25.83
2023-05-15T09:36:17.430Z,26.33
2023-05-15T09:37:17.411Z,25.96
2023-05-15T09:38:17.414Z,26.26
2023-05-15T09:39:17.386Z,26.74
2023-05-15T09:40:17.375Z,26.26
2023-05-15T09:41:17.378Z,26.16
2023-05-15T09:42:17.378Z,26.36
2023-05-15T09:43:17.363Z,26.36
2023-05-15T09:44:18.696Z,26.43
2023-05-15T09:45:17.316Z,27.02
2023-05-15T09:46:17.391Z,27.67
2023-05-15T09:47:17.499Z,27.63
2023-05-15T09:48:17.460Z,27.08
2023-05-15T09:49:17.278Z,27.11
2023-05-15T09:50:17.268Z,26.47
2023-05-15T09:51:17.260Z,26.78
2023-05-15T09:52:17.281Z,26.88
2023-05-15T09:53:21.461Z,27.21
2023-05-15T09:54:17.223Z,27.55
2023-05-15T09:55:17.195Z,27.22
2023-05-15T09:56:17.200Z,27.85
2023-05-15T09:57:17.188Z,27.74
2023-05-15T09:58:17.158Z,27.54
2023-05-15T09:59:17.173Z,27.55
2023-05-15T10:00:17.198Z,27.39
2023-05-15T10:01:17.143Z,27.44
2023-05-15T10:02:17.112Z,28.05
2023-05-15T10:03:17.167Z,28.45
2023-05-15T10:04:17.083Z,28.17
2023-05-15T10:05:17.560Z,28.41
2023-05-15T10:06:17.145Z,28.39
2023-05-15T10:07:17.069Z,28.60
2023-05-15T10:08:17.062Z,28.37
2023-05-15T10:09:17.032Z,28.15
2023-05-15T10:10:17.010Z,28.10
2023-05-15T10:11:17.007Z,27.95
2023-05-15T10:12:16.988Z,26.34
2023-05-15T10:13:16.985Z,25.51
2023-05-15T10:14:16.968Z,25.47
2023-05-15T10:15:16.976Z,25.38
2023-05-15T10:16:17.002Z,25.38
2023-05-15T10:17:16.914Z,26.43
2023-05-15T10:18:16.907Z,27.27
2023-05-15T10:19:17.002Z,27.60
2023-05-15T10:20:16.927Z,27.89
2023-05-15T10:21:16.869Z,28.59
2023-05-15T10:22:16.856Z,29.42
2023-05-15T10:23:16.866Z,30.05
2023-05-15T10:24:16.836Z,30.08
2023-05-15T10:25:16.853Z,30.28
2023-05-15T10:26:16.809Z,30.23
2023-05-15T10:27:16.795Z,29.20
2023-05-15T10:28:16.794Z,27.82
2023-05-15T10:29:16.777Z,27.15
2023-05-15T10:30:16.820Z,26.63
2023-05-15T10:31:16.802Z,26.02
2023-05-15T10:32:16.745Z,25.40
2023-05-15T10:33:16.909Z,24.91
2023-05-15T10:34:16.733Z,24.73
2023-05-15T10:35:16.757Z,24.47
2023-05-15T10:36:17.046Z,24.23
2023-05-15T10:37:16.669Z,24.01
2023-05-15T10:38:16.689Z,23.73
2023-05-15T10:39:16.716Z,24.36
2023-05-15T10:40:16.696Z,25.62
2023-05-15T10:41:18.139Z,26.56
2023-05-15T10:42:16.622Z,27.12
2023-05-15T10:43:16.591Z,27.27
2023-05-15T10:44:16.596Z,27.36
2023-05-15T10:45:16.568Z,27.68
2023-05-15T10:46:16.563Z,28.02
2023-05-15T10:47:16.579Z,27.30
2023-05-15T10:48:16.548Z,27.02
2023-05-15T10:49:16.532Z,27.83
2023-05-15T10:50:16.520Z,27.89
2023-05-15T10:51:16.503Z,27.64
2023-05-15T10:52:16.493Z,27.68
2023-05-15T10:53:16.489Z,27.15
2023-05-15T10:54:16.451Z,27.21
2023-05-15T10:55:16.493Z,27.55
2023-05-15T10:56:16.521Z,27.67
2023-05-15T10:57:16.420Z,28.20
2023-05-15T10:58:16.425Z,28.01
2023-05-15T10:59:16.392Z,27.48
2023-05-15T11:00:16.444Z,26.40
2023-05-15T11:01:16.439Z,25.69
2023-05-15T11:02:16.494Z,24.85
2023-05-15T11:03:16.548Z,23.95
2023-05-15T11:04:16.384Z,23.56
2023-05-15T11:05:16.311Z,23.80
2023-05-15T11:06:16.300Z,24.69
2023-05-15T11:07:16.321Z,24.96
2023-05-15T11:08:16.283Z,24.98
2023-05-15T11:09:16.260Z,25.46
2023-05-15T11:10:16.248Z,25.35
2023-05-15T11:11:16.262Z,26.09
2023-05-15T11:12:16.257Z,26.66
2023-05-15T11:13:16.209Z,27.22
2023-05-15T11:14:16.199Z,27.51
2023-05-15T11:15:16.186Z,27.63
2023-05-15T11:16:16.197Z,27.77
2023-05-15T11:17:16.203Z,28.20
2023-05-15T11:18:16.188Z,28.76
2023-05-15T11:19:16.273Z,29.53
2023-05-15T11:20:16.122Z,29.79
2023-05-15T11:21:16.122Z,29.94
2023-05-15T11:22:16.119Z,30.34
2023-05-15T11:23:16.086Z,30.37
2023-05-15T11:24:16.083Z,30.43
2023-05-15T11:25:16.082Z,30.44
2023-05-15T11:26:16.075Z,29.87
2023-05-15T11:27:16.071Z,29.91
2023-05-15T11:28:16.043Z,29.91
2023-05-15T11:29:16.007Z,29.23
2023-05-15T11:30:16.000Z,28.70
2023-05-15T11:31:16.084Z,29.04
2023-05-15T11:32:15.967Z,29.41
2023-05-15T11:33:15.998Z,29.35
2023-05-15T11:34:15.938Z,29.07
2023-05-15T11:35:15.935Z,29.69
2023-05-15T11:36:15.981Z,30.51
2023-05-15T11:37:15.901Z,31.02
2023-05-15T11:38:15.885Z,31.56
2023-05-15T11:39:15.874Z,31.65
2023-05-15T11:40:15.887Z,30.73
2023-05-15T11:41:15.874Z,28.76
2023-05-15T11:42:15.852Z,27.51
2023-05-15T11:43:15.849Z,27.35
2023-05-15T11:44:15.817Z,27.07
2023-05-15T11:45:15.820Z,26.81
2023-05-15T11:46:15.826Z,26.66
2023-05-15T11:47:15.795Z,26.44
2023-05-15T11:48:15.795Z,26.29
2023-05-15T11:49:15.771Z,26.09
2023-05-15T11:50:15.792Z,25.80
2023-05-15T11:51:15.724Z,25.68
2023-05-15T11:52:15.715Z,25.32
2023-05-15T11:53:15.702Z,24.69
2023-05-15T11:54:15.734Z,24.03
2023-05-15T11:55:15.738Z,23.68
2023-05-15T11:56:15.670Z,23.96
2023-05-15T11:57:15.655Z,24.39
2023-05-15T11:58:15.637Z,24.43
2023-05-15T11:59:15.668Z,24.40
2023-05-15T12:00:15.613Z,24.89
2023-05-15T12:01:15.598Z,25.47
2023-05-15T12:02:15.602Z,25.10
2023-05-15T12:03:15.639Z,25.80
2023-05-15T12:04:15.712Z,25.93
2023-05-15T12:05:15.614Z,26.77
2023-05-15T12:06:15.552Z,26.80
2023-05-15T12:07:15.524Z,26.44
2023-05-15T12:08:15.508Z,25.98
2023-05-15T12:09:15.513Z,25.60
2023-05-15T12:10:15.503Z,24.76
2023-05-15T12:11:15.482Z,24.06
2023-05-15T12:12:15.463Z,23.18
2023-05-15T12:13:15.472Z,22.57
2023-05-15T12:14:15.455Z,22.39
2023-05-15T12:15:15.453Z,22.33
2023-05-15T12:16:15.477Z,22.22
2023-05-15T12:17:15.402Z,21.92
2023-05-15T12:18:15.403Z,21.50
2023-05-15T12:19:15.411Z,21.21
2023-05-15T12:20:15.365Z,20.90
2023-05-15T12:21:15.349Z,20.60
2023-05-15T12:22:15.329Z,20.44
2023-05-15T12:23:15.336Z,20.36
2023-05-15T12:24:15.302Z,20.21
2023-05-15T12:25:15.300Z,19.88
2023-05-15T12:26:15.272Z,19.49
2023-05-15T12:27:15.282Z,19.09
2023-05-15T12:28:15.261Z,18.81
2023-05-15T12:29:15.236Z,18.56
2023-05-15T12:30:15.247Z,18.34
2023-05-15T12:31:15.313Z,18.07
2023-05-15T12:32:15.285Z,17.87
2023-05-15T12:33:15.315Z,17.76
2023-05-15T12:34:15.187Z,17.59
2023-05-15T12:35:15.164Z,17.57
2023-05-15T12:36:15.142Z,17.51
2023-05-15T12:37:15.145Z,17.48
2023-05-15T12:38:15.118Z,17.48
2023-05-15T12:39:15.104Z,17.45
2023-05-15T12:40:15.109Z,17.51
2023-05-15T12:41:15.092Z,17.57
2023-05-15T12:42:15.082Z,17.63
2023-05-15T12:43:15.051Z,17.63
2023-05-15T12:44:15.039Z,17.51
2023-05-15T12:45:15.047Z,17.57
2023-05-15T12:46:15.070Z,17.67
2023-05-15T12:47:15.016Z,17.71
2023-05-15T12:48:15.073Z,17.86
2023-05-15T12:49:14.975Z,17.42
2023-05-15T12:50:14.957Z,18.01
2023-05-15T12:51:14.959Z,18.52
2023-05-15T12:52:14.928Z,18.63
2023-05-15T12:53:14.920Z,19.11
2023-05-15T12:54:14.919Z,19.00
2023-05-15T12:55:14.968Z,18.95
2023-05-15T12:56:14.891Z,18.59
2023-05-15T12:57:14.864Z,18.31